sensor_id;sensor_type;location;lat;lon;timestamp;temperature;humidity
42037;DHT22;30340;52.004;5.908;2023-07-22T00:01:00;17.20;71.90
42037;DHT22;30340;52.004;5.908;2023-07-22T00:03:25;17.10;72.00
42037;DHT22;30340;52.004;5.908;2023-07-22T00:06:11;17.10;72.00
42037;DHT22;30340;52.004;5.908;2023-07-22T00:08:37;17.10;72.10
42037;DHT22;30340;52.004;5.908;2023-07-22T00:11:06;17.10;72.10
42037;DHT22;30340;52.004;5.908;2023-07-22T00:13:32;17.10;72.10
42037;DHT22;30340;52.004;5.908;2023-07-22T00:15:59;17.10;72.20
42037;DHT22;30340;52.004;5.908;2023-07-22T00:18:26;17.10;72.20
42037;DHT22;30340;52.004;5.908;2023-07-22T00:20:53;17.00;72.30
42037;DHT22;30340;52.004;5.908;2023-07-22T00:23:19;17.00;72.40
42037;DHT22;30340;52.004;5.908;2023-07-22T00:25:46;17.00;72.50
42037;DHT22;30340;52.004;5.908;2023-07-22T00:28:11;17.00;72.70
42037;DHT22;30340;52.004;5.908;2023-07-22T00:30:37;17.00;72.70
42037;DHT22;30340;52.004;5.908;2023-07-22T00:33:03;17.00;72.70
42037;DHT22;30340;52.004;5.908;2023-07-22T00:35:28;17.00;72.80
42037;DHT22;30340;52.004;5.908;2023-07-22T00:37:54;17.00;72.70
42037;DHT22;30340;52.004;5.908;2023-07-22T00:40:20;17.00;72.80
42037;DHT22;30340;52.004;5.908;2023-07-22T00:42:45;17.00;72.90
42037;DHT22;30340;52.004;5.908;2023-07-22T00:45:11;16.90;73.00
42037;DHT22;30340;52.004;5.908;2023-07-22T00:47:38;16.90;73.10
42037;DHT22;30340;52.004;5.908;2023-07-22T00:50:04;16.90;73.20
42037;DHT22;30340;52.004;5.908;2023-07-22T00:52:32;16.90;73.30
42037;DHT22;30340;52.004;5.908;2023-07-22T00:54:58;16.80;73.40
42037;DHT22;30340;52.004;5.908;2023-07-22T00:57:24;16.80;73.50
42037;DHT22;30340;52.004;5.908;2023-07-22T00:59:49;16.90;73.40
42037;DHT22;30340;52.004;5.908;2023-07-22T01:02:15;16.90;73.40
42037;DHT22;30340;52.004;5.908;2023-07-22T01:04:41;16.80;73.60
42037;DHT22;30340;52.004;5.908;2023-07-22T01:07:07;16.80;73.60
42037;DHT22;30340;52.004;5.908;2023-07-22T01:09:40;16.80;73.80
42037;DHT22;30340;52.004;5.908;2023-07-22T01:12:06;16.80;73.90
42037;DHT22;30340;52.004;5.908;2023-07-22T01:14:37;16.80;73.90
42037;DHT22;30340;52.004;5.908;2023-07-22T01:17:04;16.80;74.10
42037;DHT22;30340;52.004;5.908;2023-07-22T01:19:30;16.80;74.10
42037;DHT22;30340;52.004;5.908;2023-07-22T01:22:04;16.80;74.10
42037;DHT22;30340;52.004;5.908;2023-07-22T01:24:36;16.90;74.10
42037;DHT22;30340;52.004;5.908;2023-07-22T01:27:03;17.00;73.90
42037;DHT22;30340;52.004;5.908;2023-07-22T01:29:33;17.00;74.00
42037;DHT22;30340;52.004;5.908;2023-07-22T01:31:59;16.90;74.10
42037;DHT22;30340;52.004;5.908;2023-07-22T01:34:25;16.90;74.20
42037;DHT22;30340;52.004;5.908;2023-07-22T01:36:50;17.00;74.30
42037;DHT22;30340;52.004;5.908;2023-07-22T01:39:17;17.00;74.30
42037;DHT22;30340;52.004;5.908;2023-07-22T01:41:43;17.00;74.40
42037;DHT22;30340;52.004;5.908;2023-07-22T01:44:09;17.00;74.40
42037;DHT22;30340;52.004;5.908;2023-07-22T01:46:35;17.00;74.30
42037;DHT22;30340;52.004;5.908;2023-07-22T01:49:03;17.00;74.40
42037;DHT22;30340;52.004;5.908;2023-07-22T01:51:29;16.90;74.60
42037;DHT22;30340;52.004;5.908;2023-07-22T01:53:54;16.90;74.90
42037;DHT22;30340;52.004;5.908;2023-07-22T01:56:22;16.80;75.30
42037;DHT22;30340;52.004;5.908;2023-07-22T01:58:48;16.70;75.70
42037;DHT22;30340;52.004;5.908;2023-07-22T02:01:13;16.70;75.80
42037;DHT22;30340;52.004;5.908;2023-07-22T02:03:42;16.70;76.70
42037;DHT22;30340;52.004;5.908;2023-07-22T02:06:08;16.70;76.00
42037;DHT22;30340;52.004;5.908;2023-07-22T02:08:33;16.70;76.10
42037;DHT22;30340;52.004;5.908;2023-07-22T02:11:04;16.70;76.10
42037;DHT22;30340;52.004;5.908;2023-07-22T02:13:30;16.70;76.20
42037;DHT22;30340;52.004;5.908;2023-07-22T02:15:57;16.60;76.50
42037;DHT22;30340;52.004;5.908;2023-07-22T02:18:22;16.60;76.80
42037;DHT22;30340;52.004;5.908;2023-07-22T02:20:48;16.60;77.00
42037;DHT22;30340;52.004;5.908;2023-07-22T02:23:14;16.50;77.40
42037;DHT22;30340;52.004;5.908;2023-07-22T02:25:39;16.50;77.50
42037;DHT22;30340;52.004;5.908;2023-07-22T02:28:05;16.50;77.80
42037;DHT22;30340;52.004;5.908;2023-07-22T02:30:34;16.50;77.90
42037;DHT22;30340;52.004;5.908;2023-07-22T02:33:01;16.40;78.00
42037;DHT22;30340;52.004;5.908;2023-07-22T02:35:27;16.40;78.00
42037;DHT22;30340;52.004;5.908;2023-07-22T02:37:53;16.40;78.20
42037;DHT22;30340;52.004;5.908;2023-07-22T02:40:19;16.40;78.20
42037;DHT22;30340;52.004;5.908;2023-07-22T02:42:44;16.40;78.20
42037;DHT22;30340;52.004;5.908;2023-07-22T02:45:10;16.40;78.30
42037;DHT22;30340;52.004;5.908;2023-07-22T02:47:36;16.40;78.40
42037;DHT22;30340;52.004;5.908;2023-07-22T02:50:02;16.40;78.40
42037;DHT22;30340;52.004;5.908;2023-07-22T02:52:28;16.40;78.30
42037;DHT22;30340;52.004;5.908;2023-07-22T02:55:11;16.40;78.30
42037;DHT22;30340;52.004;5.908;2023-07-22T02:57:37;16.40;78.40
42037;DHT22;30340;52.004;5.908;2023-07-22T03:00:04;16.40;78.30
42037;DHT22;30340;52.004;5.908;2023-07-22T03:02:41;16.40;78.20
42037;DHT22;30340;52.004;5.908;2023-07-22T03:05:08;16.40;78.30
42037;DHT22;30340;52.004;5.908;2023-07-22T03:07:37;16.30;78.70
42037;DHT22;30340;52.004;5.908;2023-07-22T03:10:07;16.30;78.80
42037;DHT22;30340;52.004;5.908;2023-07-22T03:12:33;16.30;78.80
42037;DHT22;30340;52.004;5.908;2023-07-22T03:14:59;16.30;78.70
42037;DHT22;30340;52.004;5.908;2023-07-22T03:17:24;16.20;78.70
42037;DHT22;30340;52.004;5.908;2023-07-22T03:19:50;16.20;78.90
42037;DHT22;30340;52.004;5.908;2023-07-22T03:22:17;16.20;79.10
42037;DHT22;30340;52.004;5.908;2023-07-22T03:24:43;16.20;79.00
42037;DHT22;30340;52.004;5.908;2023-07-22T03:27:10;16.20;79.10
42037;DHT22;30340;52.004;5.908;2023-07-22T03:29:36;16.20;79.30
42037;DHT22;30340;52.004;5.908;2023-07-22T03:32:01;16.10;79.50
42037;DHT22;30340;52.004;5.908;2023-07-22T03:34:27;16.10;79.80
42037;DHT22;30340;52.004;5.908;2023-07-22T03:36:53;16.10;80.10
42037;DHT22;30340;52.004;5.908;2023-07-22T03:39:19;16.00;80.90
42037;DHT22;30340;52.004;5.908;2023-07-22T03:41:45;16.00;80.60
42037;DHT22;30340;52.004;5.908;2023-07-22T03:44:11;15.90;80.80
42037;DHT22;30340;52.004;5.908;2023-07-22T03:46:37;15.90;81.20
42037;DHT22;30340;52.004;5.908;2023-07-22T03:49:03;15.80;81.50
42037;DHT22;30340;52.004;5.908;2023-07-22T03:51:28;15.80;81.70
42037;DHT22;30340;52.004;5.908;2023-07-22T03:53:54;15.90;81.90
42037;DHT22;30340;52.004;5.908;2023-07-22T03:56:20;15.80;82.10
42037;DHT22;30340;52.004;5.908;2023-07-22T03:58:45;15.80;82.40
42037;DHT22;30340;52.004;5.908;2023-07-22T04:01:12;15.80;82.70
42037;DHT22;30340;52.004;5.908;2023-07-22T04:03:37;15.80;82.80
42037;DHT22;30340;52.004;5.908;2023-07-22T04:06:03;15.80;82.90
42037;DHT22;30340;52.004;5.908;2023-07-22T04:08:29;15.80;83.10
42037;DHT22;30340;52.004;5.908;2023-07-22T04:10:55;15.70;83.50
42037;DHT22;30340;52.004;5.908;2023-07-22T04:13:22;15.70;84.10
42037;DHT22;30340;52.004;5.908;2023-07-22T04:15:48;15.70;84.20
42037;DHT22;30340;52.004;5.908;2023-07-22T04:18:15;15.70;84.20
42037;DHT22;30340;52.004;5.908;2023-07-22T04:20:41;15.70;84.20
42037;DHT22;30340;52.004;5.908;2023-07-22T04:23:06;15.70;84.20
42037;DHT22;30340;52.004;5.908;2023-07-22T04:25:32;15.70;84.70
42037;DHT22;30340;52.004;5.908;2023-07-22T04:27:57;15.80;84.10
42037;DHT22;30340;52.004;5.908;2023-07-22T04:30:23;15.80;84.40
42037;DHT22;30340;52.004;5.908;2023-07-22T04:32:50;15.70;84.40
42037;DHT22;30340;52.004;5.908;2023-07-22T04:35:19;15.70;84.60
42037;DHT22;30340;52.004;5.908;2023-07-22T04:37:44;15.70;85.00
42037;DHT22;30340;52.004;5.908;2023-07-22T04:40:13;15.70;85.40
42037;DHT22;30340;52.004;5.908;2023-07-22T04:42:40;15.70;85.60
42037;DHT22;30340;52.004;5.908;2023-07-22T04:45:07;15.70;85.60
42037;DHT22;30340;52.004;5.908;2023-07-22T04:47:35;15.80;85.70
42037;DHT22;30340;52.004;5.908;2023-07-22T04:50:01;15.80;85.80
42037;DHT22;30340;52.004;5.908;2023-07-22T04:52:27;15.80;86.00
42037;DHT22;30340;52.004;5.908;2023-07-22T04:54:52;15.80;86.00
42037;DHT22;30340;52.004;5.908;2023-07-22T04:57:20;15.80;86.10
42037;DHT22;30340;52.004;5.908;2023-07-22T04:59:45;15.90;85.90
42037;DHT22;30340;52.004;5.908;2023-07-22T05:02:12;15.90;85.80
42037;DHT22;30340;52.004;5.908;2023-07-22T05:04:37;16.00;85.80
42037;DHT22;30340;52.004;5.908;2023-07-22T05:07:03;16.00;86.50
42037;DHT22;30340;52.004;5.908;2023-07-22T05:09:29;16.00;86.00
42037;DHT22;30340;52.004;5.908;2023-07-22T05:11:54;16.00;86.00
42037;DHT22;30340;52.004;5.908;2023-07-22T05:14:20;16.00;86.10
42037;DHT22;30340;52.004;5.908;2023-07-22T05:16:46;16.10;85.90
42037;DHT22;30340;52.004;5.908;2023-07-22T05:19:11;16.30;85.80
42037;DHT22;30340;52.004;5.908;2023-07-22T05:21:37;16.60;85.30
42037;DHT22;30340;52.004;5.908;2023-07-22T05:24:03;16.80;84.30
42037;DHT22;30340;52.004;5.908;2023-07-22T05:26:28;16.80;83.70
42037;DHT22;30340;52.004;5.908;2023-07-22T05:28:54;16.80;83.30
42037;DHT22;30340;52.004;5.908;2023-07-22T05:31:20;16.80;83.20
42037;DHT22;30340;52.004;5.908;2023-07-22T05:33:45;16.70;83.40
42037;DHT22;30340;52.004;5.908;2023-07-22T05:36:11;16.70;83.60
42037;DHT22;30340;52.004;5.908;2023-07-22T05:38:36;16.70;83.70
42037;DHT22;30340;52.004;5.908;2023-07-22T05:41:02;17.00;84.30
42037;DHT22;30340;52.004;5.908;2023-07-22T05:43:27;17.50;82.70
42037;DHT22;30340;52.004;5.908;2023-07-22T05:45:53;18.00;81.00
42037;DHT22;30340;52.004;5.908;2023-07-22T05:48:19;18.30;79.60
42037;DHT22;30340;52.004;5.908;2023-07-22T05:50:44;18.70;78.20
42037;DHT22;30340;52.004;5.908;2023-07-22T05:53:10;19.10;76.60
42037;DHT22;30340;52.004;5.908;2023-07-22T05:55:36;19.00;76.10
42037;DHT22;30340;52.004;5.908;2023-07-22T05:58:02;18.70;76.40
42037;DHT22;30340;52.004;5.908;2023-07-22T06:00:32;18.40;77.20
42037;DHT22;30340;52.004;5.908;2023-07-22T06:02:58;18.30;77.80
42037;DHT22;30340;52.004;5.908;2023-07-22T06:05:23;18.30;77.90
42037;DHT22;30340;52.004;5.908;2023-07-22T06:07:49;18.20;78.10
42037;DHT22;30340;52.004;5.908;2023-07-22T06:10:15;18.70;77.70
42037;DHT22;30340;52.004;5.908;2023-07-22T06:12:40;19.50;75.50
42037;DHT22;30340;52.004;5.908;2023-07-22T06:15:07;19.90;73.60
42037;DHT22;30340;52.004;5.908;2023-07-22T06:17:33;19.70;73.40
42037;DHT22;30340;52.004;5.908;2023-07-22T06:19:58;19.20;73.70
42037;DHT22;30340;52.004;5.908;2023-07-22T06:22:24;18.80;74.90
42037;DHT22;30340;52.004;5.908;2023-07-22T06:24:49;18.60;75.90
42037;DHT22;30340;52.004;5.908;2023-07-22T06:27:15;18.50;76.50
42037;DHT22;30340;52.004;5.908;2023-07-22T06:29:41;18.40;77.10
42037;DHT22;30340;52.004;5.908;2023-07-22T06:32:07;18.30;77.60
42037;DHT22;30340;52.004;5.908;2023-07-22T06:34:32;18.40;77.80
42037;DHT22;30340;52.004;5.908;2023-07-22T06:36:58;18.20;78.00
42037;DHT22;30340;52.004;5.908;2023-07-22T06:39:23;18.20;78.20
42037;DHT22;30340;52.004;5.908;2023-07-22T06:41:49;18.20;78.40
42037;DHT22;30340;52.004;5.908;2023-07-22T06:44:14;18.30;78.40
42037;DHT22;30340;52.004;5.908;2023-07-22T06:46:40;18.30;78.20
42037;DHT22;30340;52.004;5.908;2023-07-22T06:49:06;18.50;78.20
42037;DHT22;30340;52.004;5.908;2023-07-22T06:51:32;18.60;77.70
42037;DHT22;30340;52.004;5.908;2023-07-22T06:53:58;18.80;77.20
42037;DHT22;30340;52.004;5.908;2023-07-22T06:56:23;18.80;76.90
42037;DHT22;30340;52.004;5.908;2023-07-22T06:58:49;19.00;76.80
42037;DHT22;30340;52.004;5.908;2023-07-22T07:01:16;19.10;76.20
42037;DHT22;30340;52.004;5.908;2023-07-22T07:03:42;19.00;75.90
42037;DHT22;30340;52.004;5.908;2023-07-22T07:06:07;19.10;76.00
42037;DHT22;30340;52.004;5.908;2023-07-22T07:08:33;19.30;75.50
42037;DHT22;30340;52.004;5.908;2023-07-22T07:10:59;19.50;75.10
42037;DHT22;30340;52.004;5.908;2023-07-22T07:13:26;19.80;74.70
42037;DHT22;30340;52.004;5.908;2023-07-22T07:15:52;20.00;74.20
42037;DHT22;30340;52.004;5.908;2023-07-22T07:18:17;20.10;73.20
42037;DHT22;30340;52.004;5.908;2023-07-22T07:20:43;19.90;73.00
42037;DHT22;30340;52.004;5.908;2023-07-22T07:23:09;20.10;73.30
42037;DHT22;30340;52.004;5.908;2023-07-22T07:25:35;20.20;72.90
42037;DHT22;30340;52.004;5.908;2023-07-22T07:28:00;20.30;72.60
42037;DHT22;30340;52.004;5.908;2023-07-22T07:30:26;20.50;72.20
42037;DHT22;30340;52.004;5.908;2023-07-22T07:32:51;20.60;71.90
42037;DHT22;30340;52.004;5.908;2023-07-22T07:35:17;20.70;71.70
42037;DHT22;30340;52.004;5.908;2023-07-22T07:37:43;20.80;71.40
42037;DHT22;30340;52.004;5.908;2023-07-22T07:40:08;21.00;71.10
42037;DHT22;30340;52.004;5.908;2023-07-22T07:42:34;21.20;70.70
42037;DHT22;30340;52.004;5.908;2023-07-22T07:45:00;21.40;69.70
42037;DHT22;30340;52.004;5.908;2023-07-22T07:47:25;21.30;68.90
42037;DHT22;30340;52.004;5.908;2023-07-22T07:49:51;21.20;69.20
42037;DHT22;30340;52.004;5.908;2023-07-22T07:52:16;21.20;69.10
42037;DHT22;30340;52.004;5.908;2023-07-22T07:54:42;21.30;69.20
42037;DHT22;30340;52.004;5.908;2023-07-22T07:57:08;21.40;68.60
42037;DHT22;30340;52.004;5.908;2023-07-22T07:59:33;21.50;68.60
42037;DHT22;30340;52.004;5.908;2023-07-22T08:01:59;21.50;68.20
42037;DHT22;30340;52.004;5.908;2023-07-22T08:04:24;21.30;67.90
42037;DHT22;30340;52.004;5.908;2023-07-22T08:06:50;21.40;68.20
42037;DHT22;30340;52.004;5.908;2023-07-22T08:09:15;21.40;68.20
42037;DHT22;30340;52.004;5.908;2023-07-22T08:11:45;21.30;68.00
42037;DHT22;30340;52.004;5.908;2023-07-22T08:14:11;21.40;68.00
42037;DHT22;30340;52.004;5.908;2023-07-22T08:16:36;21.20;68.00
42037;DHT22;30340;52.004;5.908;2023-07-22T08:19:02;21.20;68.10
42037;DHT22;30340;52.004;5.908;2023-07-22T08:21:28;21.20;67.60
42037;DHT22;30340;52.004;5.908;2023-07-22T08:23:53;21.20;67.50
42037;DHT22;30340;52.004;5.908;2023-07-22T08:26:19;21.20;67.20
42037;DHT22;30340;52.004;5.908;2023-07-22T08:28:47;21.20;67.10
42037;DHT22;30340;52.004;5.908;2023-07-22T08:31:13;21.30;67.30
42037;DHT22;30340;52.004;5.908;2023-07-22T08:33:38;21.50;67.10
42037;DHT22;30340;52.004;5.908;2023-07-22T08:36:04;21.50;66.90
42037;DHT22;30340;52.004;5.908;2023-07-22T08:38:31;21.60;67.00
42037;DHT22;30340;52.004;5.908;2023-07-22T08:40:56;21.70;66.60
42037;DHT22;30340;52.004;5.908;2023-07-22T08:43:23;21.80;66.30
42037;DHT22;30340;52.004;5.908;2023-07-22T08:45:49;21.80;65.80
42037;DHT22;30340;52.004;5.908;2023-07-22T08:48:17;21.70;65.60
42037;DHT22;30340;52.004;5.908;2023-07-22T08:51:03;21.60;65.30
42037;DHT22;30340;52.004;5.908;2023-07-22T08:53:30;21.60;65.50
42037;DHT22;30340;52.004;5.908;2023-07-22T08:55:56;21.60;65.30
42037;DHT22;30340;52.004;5.908;2023-07-22T08:58:21;21.50;65.20
42037;DHT22;30340;52.004;5.908;2023-07-22T09:00:49;21.60;65.00
42037;DHT22;30340;52.004;5.908;2023-07-22T09:03:16;21.50;65.10
42037;DHT22;30340;52.004;5.908;2023-07-22T09:05:42;21.50;65.00
42037;DHT22;30340;52.004;5.908;2023-07-22T09:08:09;21.50;65.10
42037;DHT22;30340;52.004;5.908;2023-07-22T09:10:35;21.50;65.20
42037;DHT22;30340;52.004;5.908;2023-07-22T09:13:02;21.50;65.10
42037;DHT22;30340;52.004;5.908;2023-07-22T09:15:28;21.50;65.10
42037;DHT22;30340;52.004;5.908;2023-07-22T09:17:53;21.50;65.20
42037;DHT22;30340;52.004;5.908;2023-07-22T09:20:20;21.60;65.10
42037;DHT22;30340;52.004;5.908;2023-07-22T09:22:50;21.70;64.70
42037;DHT22;30340;52.004;5.908;2023-07-22T09:25:24;21.90;64.30
42037;DHT22;30340;52.004;5.908;2023-07-22T09:27:54;21.90;64.60
42037;DHT22;30340;52.004;5.908;2023-07-22T09:30:32;21.90;63.60
42037;DHT22;30340;52.004;5.908;2023-07-22T09:32:59;21.80;63.30
42037;DHT22;30340;52.004;5.908;2023-07-22T09:35:28;21.60;63.30
42037;DHT22;30340;52.004;5.908;2023-07-22T09:37:54;21.60;63.40
42037;DHT22;30340;52.004;5.908;2023-07-22T09:40:21;21.60;63.50
42037;DHT22;30340;52.004;5.908;2023-07-22T09:42:49;21.70;63.60
42037;DHT22;30340;52.004;5.908;2023-07-22T09:45:16;21.80;63.20
42037;DHT22;30340;52.004;5.908;2023-07-22T09:47:43;21.80;62.30
42037;DHT22;30340;52.004;5.908;2023-07-22T09:50:29;21.80;62.60
42037;DHT22;30340;52.004;5.908;2023-07-22T09:52:56;21.90;62.40
42037;DHT22;30340;52.004;5.908;2023-07-22T09:55:28;22.10;62.10
42037;DHT22;30340;52.004;5.908;2023-07-22T09:57:59;22.30;61.60
42037;DHT22;30340;52.004;5.908;2023-07-22T10:00:28;22.40;60.70
42037;DHT22;30340;52.004;5.908;2023-07-22T10:02:56;22.50;60.50
42037;DHT22;30340;52.004;5.908;2023-07-22T10:05:22;22.40;59.70
42037;DHT22;30340;52.004;5.908;2023-07-22T10:07:51;22.30;60.10
42037;DHT22;30340;52.004;5.908;2023-07-22T10:10:20;22.30;59.80
42037;DHT22;30340;52.004;5.908;2023-07-22T10:12:46;22.30;59.80
42037;DHT22;30340;52.004;5.908;2023-07-22T10:15:14;22.40;60.10
42037;DHT22;30340;52.004;5.908;2023-07-22T10:17:41;22.50;60.10
42037;DHT22;30340;52.004;5.908;2023-07-22T10:20:11;22.60;59.90
42037;DHT22;30340;52.004;5.908;2023-07-22T10:22:42;22.60;59.60
42037;DHT22;30340;52.004;5.908;2023-07-22T10:25:11;22.60;59.10
42037;DHT22;30340;52.004;5.908;2023-07-22T10:27:37;22.60;59.20
42037;DHT22;30340;52.004;5.908;2023-07-22T10:30:05;22.70;59.10
42037;DHT22;30340;52.004;5.908;2023-07-22T10:32:33;22.80;59.30
42037;DHT22;30340;52.004;5.908;2023-07-22T10:34:59;22.80;59.10
42037;DHT22;30340;52.004;5.908;2023-07-22T10:37:32;22.80;58.50
42037;DHT22;30340;52.004;5.908;2023-07-22T10:40:16;22.90;58.80
42037;DHT22;30340;52.004;5.908;2023-07-22T10:43:17;22.90;59.00
42037;DHT22;30340;52.004;5.908;2023-07-22T10:45:53;22.80;59.00
42037;DHT22;30340;52.004;5.908;2023-07-22T10:48:20;22.80;58.90
42037;DHT22;30340;52.004;5.908;2023-07-22T10:50:51;22.70;58.40
42037;DHT22;30340;52.004;5.908;2023-07-22T10:53:21;22.70;58.40
42037;DHT22;30340;52.004;5.908;2023-07-22T10:58:55;22.50;58.70
42037;DHT22;30340;52.004;5.908;2023-07-22T11:01:34;22.50;58.30
42037;DHT22;30340;52.004;5.908;2023-07-22T11:04:10;22.50;58.60
42037;DHT22;30340;52.004;5.908;2023-07-22T11:06:53;22.50;58.70
42037;DHT22;30340;52.004;5.908;2023-07-22T11:11:54;22.40;58.30
42037;DHT22;30340;52.004;5.908;2023-07-22T11:14:23;22.30;58.40
42037;DHT22;30340;52.004;5.908;2023-07-22T11:16:50;22.30;58.60
42037;DHT22;30340;52.004;5.908;2023-07-22T11:19:17;22.20;58.70
42037;DHT22;30340;52.004;5.908;2023-07-22T11:21:48;22.10;58.50
42037;DHT22;30340;52.004;5.908;2023-07-22T11:24:14;22.00;58.70
42037;DHT22;30340;52.004;5.908;2023-07-22T11:26:40;21.90;58.60
42037;DHT22;30340;52.004;5.908;2023-07-22T11:29:07;21.90;58.80
42037;DHT22;30340;52.004;5.908;2023-07-22T11:31:40;21.90;58.90
42037;DHT22;30340;52.004;5.908;2023-07-22T11:36:36;21.70;59.30
42037;DHT22;30340;52.004;5.908;2023-07-22T11:39:04;21.70;59.50
42037;DHT22;30340;52.004;5.908;2023-07-22T11:41:31;21.70;59.80
42037;DHT22;30340;52.004;5.908;2023-07-22T11:43:58;21.70;59.90
42037;DHT22;30340;52.004;5.908;2023-07-22T11:46:25;21.70;59.90
42037;DHT22;30340;52.004;5.908;2023-07-22T11:48:51;21.70;60.00
42037;DHT22;30340;52.004;5.908;2023-07-22T11:51:22;21.70;60.00
42037;DHT22;30340;52.004;5.908;2023-07-22T11:53:52;21.70;60.20
42037;DHT22;30340;52.004;5.908;2023-07-22T11:56:22;21.80;60.20
42037;DHT22;30340;52.004;5.908;2023-07-22T11:58:50;21.80;60.30
42037;DHT22;30340;52.004;5.908;2023-07-22T12:01:16;21.80;60.10
42037;DHT22;30340;52.004;5.908;2023-07-22T12:03:41;21.80;60.00
42037;DHT22;30340;52.004;5.908;2023-07-22T12:06:07;21.70;60.00
42037;DHT22;30340;52.004;5.908;2023-07-22T12:08:33;21.60;60.00
42037;DHT22;30340;52.004;5.908;2023-07-22T12:11:00;21.70;60.00
42037;DHT22;30340;52.004;5.908;2023-07-22T12:13:25;21.70;60.50
42037;DHT22;30340;52.004;5.908;2023-07-22T12:16:05;21.80;59.90
42037;DHT22;30340;52.004;5.908;2023-07-22T12:18:46;21.80;59.40
42037;DHT22;30340;52.004;5.908;2023-07-22T12:21:13;22.00;59.40
42037;DHT22;30340;52.004;5.908;2023-07-22T12:23:40;22.20;58.80
42037;DHT22;30340;52.004;5.908;2023-07-22T12:26:06;22.50;58.60
42037;DHT22;30340;52.004;5.908;2023-07-22T12:28:32;22.70;58.20
42037;DHT22;30340;52.004;5.908;2023-07-22T12:30:58;22.80;58.40
42037;DHT22;30340;52.004;5.908;2023-07-22T12:33:24;22.80;57.70
42037;DHT22;30340;52.004;5.908;2023-07-22T12:35:50;22.70;57.80
42037;DHT22;30340;52.004;5.908;2023-07-22T12:38:16;22.60;57.90
42037;DHT22;30340;52.004;5.908;2023-07-22T12:40:42;22.60;58.20
42037;DHT22;30340;52.004;5.908;2023-07-22T12:43:07;22.50;58.30
42037;DHT22;30340;52.004;5.908;2023-07-22T12:45:33;22.40;58.00
42037;DHT22;30340;52.004;5.908;2023-07-22T12:47:59;22.20;58.00
42037;DHT22;30340;52.004;5.908;2023-07-22T12:50:25;22.00;59.20
42037;DHT22;30340;52.004;5.908;2023-07-22T12:52:50;21.60;61.10
42037;DHT22;30340;52.004;5.908;2023-07-22T12:55:16;21.30;62.90
42037;DHT22;30340;52.004;5.908;2023-07-22T12:57:42;21.10;63.80
42037;DHT22;30340;52.004;5.908;2023-07-22T13:00:07;20.80;64.80
42037;DHT22;30340;52.004;5.908;2023-07-22T13:02:37;20.70;65.30
42037;DHT22;30340;52.004;5.908;2023-07-22T13:05:03;20.50;65.90
42037;DHT22;30340;52.004;5.908;2023-07-22T13:07:29;20.40;66.20
42037;DHT22;30340;52.004;5.908;2023-07-22T13:09:55;20.40;66.80
42037;DHT22;30340;52.004;5.908;2023-07-22T13:12:23;20.50;67.10
42037;DHT22;30340;52.004;5.908;2023-07-22T13:14:48;20.40;67.20
42037;DHT22;30340;52.004;5.908;2023-07-22T13:17:14;20.50;67.60
42037;DHT22;30340;52.004;5.908;2023-07-22T13:19:39;20.60;67.50
42037;DHT22;30340;52.004;5.908;2023-07-22T13:22:05;20.80;68.10
42037;DHT22;30340;52.004;5.908;2023-07-22T13:24:30;21.00;67.00
42037;DHT22;30340;52.004;5.908;2023-07-22T13:26:56;21.20;66.90
42037;DHT22;30340;52.004;5.908;2023-07-22T13:29:21;21.40;66.30
42037;DHT22;30340;52.004;5.908;2023-07-22T13:31:47;21.60;65.80
42037;DHT22;30340;52.004;5.908;2023-07-22T13:34:12;21.90;65.20
42037;DHT22;30340;52.004;5.908;2023-07-22T13:36:38;22.20;64.80
42037;DHT22;30340;52.004;5.908;2023-07-22T13:39:04;22.40;64.00
42037;DHT22;30340;52.004;5.908;2023-07-22T13:41:29;22.60;63.40
42037;DHT22;30340;52.004;5.908;2023-07-22T13:43:55;22.80;62.50
42037;DHT22;30340;52.004;5.908;2023-07-22T13:46:20;23.00;61.60
42037;DHT22;30340;52.004;5.908;2023-07-22T13:48:46;23.00;61.20
42037;DHT22;30340;52.004;5.908;2023-07-22T13:51:11;23.10;60.80
42037;DHT22;30340;52.004;5.908;2023-07-22T13:53:37;23.10;60.70
42037;DHT22;30340;52.004;5.908;2023-07-22T13:56:02;23.00;60.60
42037;DHT22;30340;52.004;5.908;2023-07-22T13:58:28;22.80;60.90
42037;DHT22;30340;52.004;5.908;2023-07-22T14:00:54;22.60;61.40
42037;DHT22;30340;52.004;5.908;2023-07-22T14:03:19;22.50;61.50
42037;DHT22;30340;52.004;5.908;2023-07-22T14:05:46;22.40;61.80
42037;DHT22;30340;52.004;5.908;2023-07-22T14:08:12;22.30;62.10
42037;DHT22;30340;52.004;5.908;2023-07-22T14:10:37;22.20;62.40
42037;DHT22;30340;52.004;5.908;2023-07-22T14:13:03;22.10;62.50
42037;DHT22;30340;52.004;5.908;2023-07-22T14:15:28;22.10;62.80
42037;DHT22;30340;52.004;5.908;2023-07-22T14:17:54;22.10;63.00
42037;DHT22;30340;52.004;5.908;2023-07-22T14:20:20;22.00;63.00
42037;DHT22;30340;52.004;5.908;2023-07-22T14:22:45;22.00;63.20
42037;DHT22;30340;52.004;5.908;2023-07-22T14:25:11;22.00;63.30
42037;DHT22;30340;52.004;5.908;2023-07-22T14:27:39;21.80;63.40
42037;DHT22;30340;52.004;5.908;2023-07-22T14:30:06;21.80;63.70
42037;DHT22;30340;52.004;5.908;2023-07-22T14:32:32;21.70;64.00
42037;DHT22;30340;52.004;5.908;2023-07-22T14:34:57;21.50;64.30
42037;DHT22;30340;52.004;5.908;2023-07-22T14:37:23;21.40;64.70
42037;DHT22;30340;52.004;5.908;2023-07-22T14:39:49;21.40;64.90
42037;DHT22;30340;52.004;5.908;2023-07-22T14:42:15;21.40;65.00
42037;DHT22;30340;52.004;5.908;2023-07-22T14:44:40;21.40;64.70
42037;DHT22;30340;52.004;5.908;2023-07-22T14:47:06;21.40;64.50
42037;DHT22;30340;52.004;5.908;2023-07-22T14:49:32;21.40;64.50
42037;DHT22;30340;52.004;5.908;2023-07-22T14:51:57;21.40;64.30
42037;DHT22;30340;52.004;5.908;2023-07-22T14:54:23;21.50;64.40
42037;DHT22;30340;52.004;5.908;2023-07-22T14:56:49;21.60;64.30
42037;DHT22;30340;52.004;5.908;2023-07-22T14:59:15;21.60;64.10
42037;DHT22;30340;52.004;5.908;2023-07-22T15:01:42;21.70;64.00
42037;DHT22;30340;52.004;5.908;2023-07-22T15:04:08;21.70;64.00
42037;DHT22;30340;52.004;5.908;2023-07-22T15:06:34;21.80;63.90
42037;DHT22;30340;52.004;5.908;2023-07-22T15:09:03;21.90;63.70
42037;DHT22;30340;52.004;5.908;2023-07-22T15:11:36;21.90;63.70
42037;DHT22;30340;52.004;5.908;2023-07-22T15:14:05;21.90;63.40
42037;DHT22;30340;52.004;5.908;2023-07-22T15:16:31;22.00;63.40
42037;DHT22;30340;52.004;5.908;2023-07-22T15:18:57;22.00;63.20
42037;DHT22;30340;52.004;5.908;2023-07-22T15:21:22;22.00;63.30
42037;DHT22;30340;52.004;5.908;2023-07-22T15:23:48;22.00;63.40
42037;DHT22;30340;52.004;5.908;2023-07-22T15:26:14;22.10;63.40
42037;DHT22;30340;52.004;5.908;2023-07-22T15:28:39;22.20;63.00
42037;DHT22;30340;52.004;5.908;2023-07-22T15:31:06;22.20;62.60
42037;DHT22;30340;52.004;5.908;2023-07-22T15:33:32;22.30;62.60
42037;DHT22;30340;52.004;5.908;2023-07-22T15:35:58;22.30;62.50